createdAt,value
2022-09-13T00:01:23.621Z,98.48
2022-09-13T00:03:52.198Z,98.53
2022-09-13T00:06:22.131Z,98.89
2022-09-13T00:08:50.617Z,99.32
2022-09-13T00:11:23.909Z,99.53
2022-09-13T00:13:55.191Z,99.70
2022-09-13T00:16:27.725Z,99.85
2022-09-13T00:18:56.847Z,100.00
2022-09-13T00:21:25.278Z,99.99
2022-09-13T00:23:55.434Z,100.00
2022-09-13T00:26:28.816Z,100.00
2022-09-13T00:28:59.053Z,100.00
2022-09-13T00:31:29.083Z,100.00
2022-09-13T00:34:01.000Z,100.00
2022-09-13T00:36:29.675Z,100.00
2022-09-13T00:39:00.140Z,99.99
2022-09-13T00:41:28.715Z,100.00
2022-09-13T00:44:02.480Z,100.00
2022-09-13T00:46:48.027Z,100.00
2022-09-13T00:49:20.808Z,100.00
2022-09-13T00:51:55.827Z,100.00
2022-09-13T00:54:29.542Z,100.00
2022-09-13T00:57:02.453Z,100.00
2022-09-13T00:59:38.163Z,100.00
2022-09-13T01:02:07.219Z,100.00
2022-09-13T01:04:37.146Z,100.00
2022-09-13T01:07:09.852Z,100.00
2022-09-13T01:09:44.153Z,100.00
2022-09-13T01:12:49.573Z,100.00
2022-09-13T01:15:17.887Z,100.00
2022-09-13T01:17:46.567Z,100.00
2022-09-13T01:20:15.717Z,100.00
2022-09-13T01:22:46.834Z,100.00
2022-09-13T01:25:33.717Z,100.00
2022-09-13T01:28:04.607Z,100.00
2022-09-13T01:30:54.666Z,100.00
2022-09-13T01:33:45.299Z,100.00
2022-09-13T01:37:09.845Z,100.00
2022-09-13T01:40:29.421Z,100.00
2022-09-13T01:43:22.305Z,100.00
2022-09-13T01:46:26.463Z,100.00
2022-09-13T01:49:17.096Z,100.00
2022-09-13T01:52:01.664Z,100.00
2022-09-13T01:54:49.075Z,100.00
2022-09-13T01:57:23.159Z,100.00
2022-09-13T02:00:08.081Z,100.00
2022-09-13T02:03:08.409Z,100.00
2022-09-13T02:05:47.717Z,100.00
2022-09-13T02:08:29.091Z,100.00
2022-09-13T02:11:09.067Z,100.00
2022-09-13T02:14:02.570Z,100.00
2022-09-13T02:17:04.163Z,100.00
2022-09-13T02:19:54.381Z,100.00
2022-09-13T02:22:37.731Z,100.00
2022-09-13T02:25:16.037Z,100.00
2022-09-13T02:27:50.311Z,100.00
2022-09-13T02:30:19.688Z,100.00
2022-09-13T02:33:49.865Z,100.00
2022-09-13T02:36:29.627Z,100.00
2022-09-13T02:39:02.548Z,100.00
2022-09-13T02:41:54.627Z,100.00
2022-09-13T02:44:35.325Z,100.00
2022-09-13T02:47:12.176Z,100.00
2022-09-13T02:50:07.251Z,100.00
2022-09-13T02:52:58.491Z,100.00
2022-09-13T02:55:49.247Z,100.00
2022-09-13T02:58:47.043Z,100.00
2022-09-13T03:01:15.633Z,100.00
2022-09-13T03:03:44.821Z,100.00
2022-09-13T03:06:13.312Z,100.00
2022-09-13T03:08:41.621Z,100.00
2022-09-13T03:11:36.171Z,100.00
2022-09-13T03:14:39.845Z,100.00
2022-09-13T03:17:17.076Z,100.00
2022-09-13T03:19:59.636Z,100.00
2022-09-13T03:22:43.612Z,100.00
2022-09-13T03:25:44.170Z,100.00
2022-09-13T03:29:08.849Z,100.00
2022-09-13T03:32:15.615Z,100.00
2022-09-13T03:35:04.582Z,100.00
2022-09-13T03:37:57.651Z,100.00
2022-09-13T03:40:40.749Z,100.00
2022-09-13T03:43:42.547Z,100.00
2022-09-13T03:46:50.217Z,100.00
2022-09-13T03:49:23.210Z,100.00
2022-09-13T03:51:52.939Z,100.00
2022-09-13T03:54:32.541Z,100.00
2022-09-13T03:57:21.402Z,100.00
2022-09-13T03:59:54.094Z,100.00
2022-09-13T04:02:25.673Z,100.00
2022-09-13T04:04:54.158Z,100.00
2022-09-13T04:07:25.169Z,100.00
2022-09-13T04:09:53.734Z,100.00
2022-09-13T04:12:22.215Z,100.00
2022-09-13T04:14:50.496Z,100.00
2022-09-13T04:17:18.813Z,100.00
2022-09-13T04:19:47.185Z,100.00
2022-09-13T04:22:16.042Z,100.00
2022-09-13T04:24:44.378Z,100.00
2022-09-13T04:27:13.478Z,100.00
2022-09-13T04:29:41.783Z,100.00
2022-09-13T04:32:10.963Z,100.00
2022-09-13T04:34:39.303Z,100.00
2022-09-13T04:37:09.234Z,100.00
2022-09-13T04:39:37.521Z,100.00
2022-09-13T04:42:07.444Z,100.00
2022-09-13T04:44:36.015Z,100.00
2022-09-13T04:47:04.772Z,100.00
2022-09-13T04:49:34.100Z,100.00
2022-09-13T04:52:02.806Z,100.00
2022-09-13T04:54:31.318Z,100.00
2022-09-13T04:56:59.748Z,100.00
2022-09-13T04:59:28.043Z,100.00
2022-09-13T05:01:56.337Z,100.00
2022-09-13T05:04:24.699Z,100.00
2022-09-13T05:06:52.950Z,100.00
2022-09-13T05:09:21.229Z,100.00
2022-09-13T05:11:49.763Z,100.00
2022-09-13T05:14:18.049Z,100.00
2022-09-13T05:16:46.316Z,100.00
2022-09-13T05:19:14.732Z,100.00
2022-09-13T05:21:43.102Z,100.00
2022-09-13T05:24:11.914Z,100.00
2022-09-13T05:26:40.320Z,100.00
2022-09-13T05:29:08.829Z,100.00
2022-09-13T05:31:42.204Z,100.00
2022-09-13T05:34:15.181Z,100.00
2022-09-13T05:36:44.473Z,100.00
2022-09-13T05:42:06.333Z,100.00
2022-09-13T05:44:34.587Z,100.00
2022-09-13T05:47:02.949Z,100.00
2022-09-13T05:49:31.574Z,100.00
2022-09-13T05:52:00.035Z,100.00
2022-09-13T05:54:28.627Z,100.00
2022-09-13T05:56:57.696Z,100.00
2022-09-13T05:59:26.059Z,100.00
2022-09-13T06:02:10.604Z,100.00
2022-09-13T06:04:39.011Z,100.00
2022-09-13T06:07:13.638Z,100.00
2022-09-13T06:09:44.134Z,100.00
2022-09-13T06:12:12.448Z,100.00
2022-09-13T06:14:40.767Z,100.00
2022-09-13T06:17:09.103Z,100.00
2022-09-13T06:19:37.548Z,100.00
2022-09-13T06:25:42.060Z,100.00
2022-09-13T06:28:10.827Z,100.00
2022-09-13T06:30:39.139Z,100.00
2022-09-13T06:33:07.451Z,100.00
2022-09-13T06:35:37.218Z,100.00
2022-09-13T06:38:10.528Z,100.00
2022-09-13T06:40:38.891Z,100.00
2022-09-13T06:43:07.256Z,100.00
2022-09-13T06:45:35.607Z,100.00
2022-09-13T06:48:04.132Z,100.00
2022-09-13T06:50:32.378Z,100.00
2022-09-13T06:53:00.666Z,100.00
2022-09-13T06:55:29.158Z,100.00
2022-09-13T06:57:59.011Z,100.00
2022-09-13T07:00:27.242Z,100.00
2022-09-13T07:02:55.597Z,100.00
2022-09-13T07:05:23.815Z,100.00
2022-09-13T07:07:52.166Z,100.00
2022-09-13T07:10:20.464Z,100.00
2022-09-13T07:12:48.704Z,100.00
2022-09-13T07:15:16.958Z,100.00
2022-09-13T07:17:45.228Z,100.00
2022-09-13T07:20:13.548Z,100.00
2022-09-13T07:22:41.856Z,100.00
2022-09-13T07:25:10.377Z,100.00
2022-09-13T07:27:55.662Z,100.00
2022-09-13T07:30:26.779Z,100.00
2022-09-13T07:32:55.069Z,100.00
2022-09-13T07:35:23.392Z,100.00
2022-09-13T07:37:51.941Z,100.00
2022-09-13T07:40:20.303Z,100.00
2022-09-13T07:42:48.607Z,100.00
2022-09-13T07:45:28.578Z,100.00
2022-09-13T07:47:57.003Z,100.00
2022-09-13T07:50:25.255Z,100.00
2022-09-13T07:52:53.864Z,100.00
2022-09-13T07:55:24.500Z,100.00
2022-09-13T07:57:54.538Z,100.00
2022-09-13T08:00:25.251Z,100.00
2022-09-13T08:02:56.223Z,100.00
2022-09-13T08:05:27.611Z,100.00
2022-09-13T08:07:58.880Z,100.00
2022-09-13T08:10:29.135Z,100.00
2022-09-13T08:12:58.529Z,100.00
2022-09-13T08:15:27.571Z,100.00
2022-09-13T08:17:55.896Z,100.00
2022-09-13T08:21:18.830Z,100.00
2022-09-13T08:23:47.479Z,100.00
2022-09-13T08:26:17.304Z,100.00
2022-09-13T08:28:45.673Z,100.00
2022-09-13T08:31:18.145Z,99.94
2022-09-13T08:33:50.814Z,99.79
2022-09-13T08:36:23.844Z,99.74
2022-09-13T08:38:57.758Z,99.06
2022-09-13T08:44:56.110Z,98.57
2022-09-13T08:47:47.024Z,98.45
2022-09-13T08:50:19.642Z,97.28
2022-09-13T09:05:24.113Z,94.76
2022-09-13T09:08:27.454Z,94.64
2022-09-13T09:10:59.143Z,94.31
2022-09-13T09:17:15.442Z,93.72
2022-09-13T09:22:36.398Z,93.30
2022-09-13T09:25:05.264Z,92.56
2022-09-13T09:27:33.883Z,91.00
2022-09-13T09:30:02.163Z,90.64
2022-09-13T09:32:48.283Z,87.16
2022-09-13T09:35:37.925Z,87.80
2022-09-13T09:38:31.306Z,88.04
2022-09-13T09:41:06.851Z,88.26
2022-09-13T09:43:52.518Z,87.39
2022-09-13T09:46:27.521Z,85.94
2022-09-13T09:49:34.150Z,84.06
2022-09-13T09:52:06.860Z,83.03
2022-09-13T09:54:36.749Z,81.75
2022-09-13T09:57:08.231Z,81.99
2022-09-13T09:59:37.176Z,82.37
2022-09-13T10:02:25.820Z,82.22
2022-09-13T10:05:01.204Z,81.95
2022-09-13T10:07:35.994Z,81.74
2022-09-13T10:10:26.428Z,80.63
2022-09-13T10:12:57.476Z,81.05
2022-09-13T10:18:43.341Z,81.09
2022-09-13T10:21:19.036Z,80.66
2022-09-13T10:23:50.520Z,80.24
2022-09-13T10:26:25.892Z,80.70
2022-09-13T10:29:06.982Z,80.91
2022-09-13T10:31:43.206Z,80.76
2022-09-13T10:34:21.757Z,80.70
2022-09-13T10:37:03.081Z,80.77
2022-09-13T10:39:36.499Z,81.01
2022-09-13T10:42:08.744Z,81.45
2022-09-13T10:45:26.382Z,81.72
2022-09-13T10:48:19.011Z,81.60
2022-09-13T10:51:06.108Z,81.85
2022-09-13T10:53:42.734Z,82.00
2022-09-13T10:56:26.812Z,82.14
2022-09-13T10:59:26.071Z,82.31
2022-09-13T11:02:35.355Z,82.47
2022-09-13T11:05:29.053Z,82.23
2022-09-13T11:08:28.375Z,81.77
2022-09-13T11:11:14.028Z,80.46
2022-09-13T11:13:53.159Z,80.09
2022-09-13T11:16:38.225Z,79.56
2022-09-13T11:19:48.293Z,80.07
2022-09-13T11:22:34.423Z,80.75
2022-09-13T11:25:26.024Z,80.73
2022-09-13T11:28:09.214Z,79.95
2022-09-13T11:31:14.049Z,80.22
2022-09-13T11:34:19.771Z,79.59
2022-09-13T11:37:19.687Z,79.66
2022-09-13T11:40:14.143Z,79.24
2022-09-13T11:43:16.222Z,79.27
2022-09-13T11:45:54.808Z,79.25
2022-09-13T11:48:48.884Z,79.52
2022-09-13T11:51:42.102Z,78.59
2022-09-13T11:55:03.890Z,78.57
2022-09-13T11:57:41.614Z,78.53
2022-09-13T12:00:20.419Z,78.13
2022-09-13T12:05:54.684Z,78.28
2022-09-13T12:08:36.759Z,77.78
2022-09-13T12:11:16.301Z,76.74
2022-09-13T12:13:58.534Z,76.07
2022-09-13T12:16:52.604Z,76.30
2022-09-13T12:19:28.344Z,76.61
2022-09-13T12:22:01.008Z,76.43
2022-09-13T12:24:50.559Z,75.57
2022-09-13T12:27:42.835Z,75.69
2022-09-13T12:30:32.563Z,75.37
2022-09-13T12:33:00.930Z,75.35
2022-09-13T12:35:52.703Z,75.60
2022-09-13T12:42:18.254Z,74.79
2022-09-13T12:45:06.286Z,74.96
2022-09-13T12:48:00.075Z,74.96
2022-09-13T12:50:43.462Z,75.14
2022-09-13T12:53:27.626Z,75.16
2022-09-13T12:56:45.281Z,75.38
2022-09-13T13:02:42.790Z,75.67
2022-09-13T13:05:35.191Z,75.63
2022-09-13T13:08:20.494Z,76.00
2022-09-13T13:11:00.566Z,75.97
2022-09-13T13:13:36.065Z,76.37
2022-09-13T13:16:29.151Z,76.36
2022-09-13T13:19:03.311Z,76.77
2022-09-13T13:21:40.374Z,77.07
2022-09-13T13:24:17.624Z,77.47
2022-09-13T13:26:55.030Z,78.01
2022-09-13T13:29:26.635Z,78.15
2022-09-13T13:32:03.498Z,78.51
2022-09-13T13:34:49.371Z,78.75
2022-09-13T13:37:20.375Z,78.71
2022-09-13T13:40:20.518Z,78.42
2022-09-13T13:42:49.422Z,78.58
2022-09-13T13:45:26.046Z,77.81
2022-09-13T13:48:17.581Z,77.72
2022-09-13T13:51:26.805Z,77.82
2022-09-13T13:54:02.947Z,78.28
2022-09-13T13:56:50.073Z,78.34
2022-09-13T13:59:32.094Z,78.23
2022-09-13T14:02:01.992Z,77.79
2022-09-13T14:05:00.788Z,77.67
2022-09-13T14:07:41.023Z,77.73
2022-09-13T14:10:24.809Z,77.39
2022-09-13T14:13:28.354Z,77.70
2022-09-13T14:16:10.113Z,77.79
2022-09-13T14:19:29.712Z,77.88
2022-09-13T14:22:25.297Z,78.22
2022-09-13T14:24:55.950Z,78.27
2022-09-13T14:27:27.075Z,78.51
2022-09-13T14:32:57.178Z,78.56
2022-09-13T14:35:38.504Z,78.42
2022-09-13T14:41:29.595Z,78.46
2022-09-13T14:44:23.750Z,78.68
2022-09-13T14:47:24.664Z,78.80
2022-09-13T14:50:01.985Z,78.94
2022-09-13T14:52:38.445Z,78.91
2022-09-13T14:55:18.945Z,79.03
2022-09-13T14:57:53.696Z,79.06
2022-09-13T15:00:23.468Z,79.06
2022-09-13T15:02:59.901Z,79.32
2022-09-13T15:05:33.414Z,79.20
2022-09-13T15:08:33.526Z,79.28
2022-09-13T15:11:06.624Z,79.50
2022-09-13T15:13:35.035Z,79.43
2022-09-13T15:16:30.018Z,79.48
2022-09-13T15:19:23.192Z,79.49
2022-09-13T15:21:51.529Z,79.31
2022-09-13T15:24:31.939Z,78.67
2022-09-13T15:27:07.466Z,78.16
2022-09-13T15:29:37.618Z,76.33
2022-09-13T15:32:07.205Z,74.29
2022-09-13T15:34:46.598Z,73.94
2022-09-13T15:37:15.641Z,73.42
2022-09-13T15:42:53.156Z,72.03
2022-09-13T15:45:22.785Z,71.75
2022-09-13T15:47:52.791Z,71.07
2022-09-13T15:50:33.628Z,70.97
2022-09-13T15:53:02.042Z,70.91
2022-09-13T15:55:31.410Z,71.18
2022-09-13T15:57:59.715Z,71.35
2022-09-13T16:00:28.543Z,71.33
2022-09-13T16:02:57.033Z,70.86
2022-09-13T16:05:25.397Z,71.91
2022-09-13T16:07:58.808Z,72.32
2022-09-13T16:10:28.281Z,72.29
2022-09-13T16:12:56.604Z,73.39
2022-09-13T16:15:25.006Z,74.06
2022-09-13T16:17:53.248Z,74.46
2022-09-13T16:20:22.351Z,74.46
2022-09-13T16:22:50.574Z,74.04
2022-09-13T16:25:19.080Z,73.46
2022-09-13T16:27:47.546Z,73.01
2022-09-13T16:30:19.846Z,71.98
2022-09-13T16:32:49.090Z,72.25
2022-09-13T16:35:17.688Z,71.66
2022-09-13T16:37:48.133Z,72.65
2022-09-13T16:40:16.936Z,74.11
2022-09-13T16:42:46.233Z,75.14
2022-09-13T16:45:15.129Z,75.83
2022-09-13T16:47:43.520Z,76.24
2022-09-13T16:50:11.979Z,76.62
2022-09-13T16:52:41.031Z,76.92
2022-09-13T16:55:09.964Z,77.36
2022-09-13T16:57:38.575Z,77.73
2022-09-13T17:00:10.436Z,77.85
2022-09-13T17:02:39.167Z,78.16
2022-09-13T17:05:08.506Z,78.55
2022-09-13T17:07:37.435Z,78.76
2022-09-13T17:10:09.188Z,78.98
2022-09-13T17:12:38.849Z,79.34
2022-09-13T17:15:07.912Z,79.79
2022-09-13T17:17:36.440Z,79.95
2022-09-13T17:20:10.365Z,80.22
2022-09-13T17:22:39.582Z,80.52
2022-09-13T17:25:08.949Z,80.96
2022-09-13T17:27:37.387Z,81.21
2022-09-13T17:30:06.866Z,81.17
2022-09-13T17:32:35.330Z,81.57
2022-09-13T17:35:04.009Z,81.98
2022-09-13T17:37:32.314Z,82.03
2022-09-13T17:40:00.913Z,82.41
2022-09-13T17:42:29.906Z,82.57
2022-09-13T17:44:58.299Z,82.79
2022-09-13T17:47:26.612Z,83.07
2022-09-13T17:49:56.139Z,83.27
2022-09-13T17:52:24.669Z,83.52
2022-09-13T17:54:53.065Z,83.71
2022-09-13T17:57:21.814Z,83.83
2022-09-13T17:59:50.609Z,84.03
2022-09-13T18:02:18.981Z,84.13
2022-09-13T18:04:50.776Z,84.49
2022-09-13T18:07:19.679Z,84.60
2022-09-13T18:09:47.993Z,84.63
2022-09-13T18:12:16.567Z,84.63
2022-09-13T18:14:44.958Z,84.69
2022-09-13T18:17:13.395Z,84.85
2022-09-13T18:19:47.038Z,84.92
2022-09-13T18:22:15.912Z,84.93
2022-09-13T18:24:44.589Z,84.93
2022-09-13T18:27:13.083Z,85.14
2022-09-13T18:29:42.042Z,85.20
2022-09-13T18:32:10.561Z,85.16
2022-09-13T18:34:38.868Z,85.35
2022-09-13T18:37:07.198Z,85.43
2022-09-13T18:39:36.425Z,85.51
2022-09-13T18:42:04.870Z,85.61
2022-09-13T18:44:34.052Z,85.60
2022-09-13T18:47:04.789Z,85.47
2022-09-13T18:49:33.068Z,85.71
2022-09-13T18:52:01.537Z,85.86
2022-09-13T18:54:29.781Z,85.74
2022-09-13T18:57:00.069Z,85.76
2022-09-13T18:59:30.317Z,86.05
2022-09-13T19:01:59.107Z,86.03
2022-09-13T19:04:27.428Z,86.11
2022-09-13T19:06:58.702Z,86.36
2022-09-13T19:09:27.022Z,86.56
2022-09-13T19:11:55.357Z,86.60
2022-09-13T19:14:27.608Z,86.95
2022-09-13T19:17:01.165Z,87.20
2022-09-13T19:19:31.019Z,87.19
2022-09-13T19:21:59.364Z,87.19
2022-09-13T19:24:28.447Z,87.39
2022-09-13T19:26:56.720Z,87.33
2022-09-13T19:29:25.188Z,87.46
2022-09-13T19:31:55.868Z,87.64
2022-09-13T19:34:24.405Z,87.74
2022-09-13T19:36:57.840Z,87.72
2022-09-13T19:39:30.071Z,87.90
2022-09-13T19:42:00.548Z,88.06
2022-09-13T19:44:29.081Z,88.16
2022-09-13T19:47:42.799Z,88.32
2022-09-13T19:49:49.526Z,88.38
2022-09-13T19:52:18.041Z,88.58
2022-09-13T19:54:46.301Z,88.51
2022-09-13T19:57:14.702Z,88.68
2022-09-13T19:59:43.860Z,88.74
2022-09-13T20:02:12.183Z,89.02
2022-09-13T20:04:41.017Z,89.04
2022-09-13T20:07:12.188Z,89.05
2022-09-13T20:09:42.311Z,89.16
2022-09-13T20:12:11.435Z,89.33
2022-09-13T20:14:40.140Z,89.31
2022-09-13T20:17:08.413Z,89.43
2022-09-13T20:19:43.567Z,89.57
2022-09-13T20:22:15.298Z,89.75
2022-09-13T20:24:43.599Z,89.74
2022-09-13T20:27:12.345Z,89.75
2022-09-13T20:29:41.530Z,89.91
2022-09-13T20:32:11.245Z,89.83
2022-09-13T20:34:39.717Z,89.89
2022-09-13T20:37:08.059Z,89.97
2022-09-13T20:39:36.361Z,89.97
2022-09-13T20:42:05.059Z,89.94
2022-09-13T20:44:33.342Z,89.96
2022-09-13T20:47:02.101Z,89.92
2022-09-13T20:49:30.418Z,90.07
2022-09-13T20:51:59.301Z,89.98
2022-09-13T20:54:27.586Z,89.96
2022-09-13T20:56:56.355Z,89.97
2022-09-13T20:59:25.389Z,90.11
2022-09-13T21:01:54.050Z,90.10
2022-09-13T21:04:22.658Z,90.11
2022-09-13T21:07:16.954Z,90.18
2022-09-13T21:09:45.212Z,90.21
2022-09-13T21:12:15.506Z,90.26
2022-09-13T21:14:43.904Z,90.35
2022-09-13T21:17:12.871Z,90.29
2022-09-13T21:19:41.177Z,90.27
2022-09-13T21:22:10.352Z,90.80
2022-09-13T21:24:38.731Z,90.87
2022-09-13T21:27:07.136Z,91.28
2022-09-13T21:29:35.605Z,91.46
2022-09-13T21:32:04.070Z,91.57
2022-09-13T21:34:32.395Z,91.49
2022-09-13T21:37:00.647Z,91.72
2022-09-13T21:39:30.035Z,91.92
2022-09-13T21:41:58.301Z,92.01
2022-09-13T21:44:28.079Z,92.14
2022-09-13T21:46:56.399Z,92.24
2022-09-13T21:49:24.733Z,92.45
2022-09-13T21:51:54.218Z,92.46
2022-09-13T21:54:22.581Z,92.66
2022-09-13T21:56:54.151Z,92.67
2022-09-13T21:59:23.925Z,92.81
2022-09-13T22:01:54.114Z,92.93
2022-09-13T22:04:27.395Z,93.05
2022-09-13T22:06:56.596Z,92.96
2022-09-13T22:09:27.331Z,93.06
2022-09-13T22:11:56.632Z,92.98
2022-09-13T22:14:26.653Z,92.88
2022-09-13T22:16:55.165Z,93.06
2022-09-13T22:19:26.930Z,93.15
2022-09-13T22:21:59.318Z,93.29
2022-09-13T22:24:32.218Z,93.29
2022-09-13T22:27:01.181Z,93.31
2022-09-13T22:29:29.990Z,93.51
2022-09-13T22:31:58.569Z,93.50
2022-09-13T22:34:30.855Z,93.65
2022-09-13T22:37:00.091Z,93.92
2022-09-13T22:39:28.617Z,94.00
2022-09-13T22:41:56.960Z,94.22
2022-09-13T22:44:25.254Z,94.50
2022-09-13T22:46:53.697Z,94.45
2022-09-13T22:49:22.059Z,94.41
2022-09-13T22:51:50.866Z,94.68
2022-09-13T22:54:19.548Z,94.69
2022-09-13T22:56:48.471Z,94.81
2022-09-13T22:59:21.561Z,94.92
2022-09-13T23:01:50.309Z,94.95
2022-09-13T23:04:18.737Z,95.08
2022-09-13T23:06:47.336Z,95.28
2022-09-13T23:09:18.894Z,95.37
2022-09-13T23:11:48.273Z,95.52
2022-09-13T23:14:20.094Z,95.57
2022-09-13T23:16:51.360Z,95.78
2022-09-13T23:19:22.471Z,96.01
2022-09-13T23:21:53.676Z,96.46
2022-09-13T23:24:24.193Z,96.72
2022-09-13T23:26:54.947Z,97.07
2022-09-13T23:29:23.396Z,97.24
2022-09-13T23:31:52.211Z,97.46
2022-09-13T23:34:20.687Z,97.65
2022-09-13T23:36:49.023Z,98.00
2022-09-13T23:39:19.620Z,98.24
2022-09-13T23:41:49.246Z,98.46
2022-09-13T23:44:18.345Z,98.56
2022-09-13T23:46:46.790Z,98.88
2022-09-13T23:49:15.735Z,99.15
2022-09-13T23:51:44.062Z,99.45
2022-09-13T23:54:14.024Z,99.53
2022-09-13T23:56:42.998Z,99.62
2022-09-13T23:59:13.416Z,99.74
